createdAt,value
2023-05-19T00:01:57.724Z,12.60
2023-05-19T00:04:32.750Z,5.60
2023-05-19T00:07:08.752Z,12.20
2023-05-19T00:09:43.824Z,7.00
2023-05-19T00:12:18.904Z,5.70
2023-05-19T00:14:54.736Z,5.30
2023-05-19T00:17:29.151Z,8.20
2023-05-19T00:20:07.808Z,5.20
2023-05-19T00:22:41.470Z,6.00
2023-05-19T00:25:15.469Z,3.70
2023-05-19T00:27:49.064Z,11.70
2023-05-19T00:30:23.553Z,8.40
2023-05-19T00:32:57.965Z,4.80
2023-05-19T00:35:32.360Z,6.40
2023-05-19T00:38:06.297Z,4.50
2023-05-19T00:40:43.507Z,2.80
2023-05-19T00:43:17.338Z,4.50
2023-05-19T00:45:51.107Z,7.10
2023-05-19T00:48:24.790Z,3.90
2023-05-19T00:51:04.910Z,5.40
2023-05-19T00:53:39.244Z,9.80
2023-05-19T00:56:13.329Z,4.60
2023-05-19T00:58:47.706Z,10.90
2023-05-19T01:01:22.006Z,7.70
2023-05-19T01:03:57.413Z,5.80
2023-05-19T01:06:31.601Z,4.60
2023-05-19T01:09:05.196Z,5.40
2023-05-19T01:11:38.973Z,7.60
2023-05-19T01:14:12.736Z,6.10
2023-05-19T01:16:52.259Z,9.20
2023-05-19T01:19:52.850Z,9.90
2023-05-19T01:22:43.348Z,5.10
2023-05-19T01:25:32.987Z,5.80
2023-05-19T01:28:26.152Z,11.10
2023-05-19T01:31:01.839Z,5.00
2023-05-19T01:33:36.867Z,8.40
2023-05-19T01:36:12.011Z,8.60
2023-05-19T01:38:46.807Z,5.20
2023-05-19T01:41:21.295Z,7.40
2023-05-19T01:43:57.640Z,6.20
2023-05-19T01:46:31.428Z,7.50
2023-05-19T01:49:05.556Z,5.10
2023-05-19T01:51:41.988Z,9.60
2023-05-19T01:54:15.548Z,5.50
2023-05-19T01:56:54.898Z,6.40
2023-05-19T01:59:39.437Z,5.70
2023-05-19T02:02:18.859Z,6.80
2023-05-19T02:04:56.581Z,5.20
2023-05-19T02:07:37.499Z,5.70
2023-05-19T02:10:16.880Z,7.40
2023-05-19T02:12:51.928Z,5.20
2023-05-19T02:15:29.017Z,8.10
2023-05-19T02:18:05.415Z,8.50
2023-05-19T02:20:39.036Z,10.20
2023-05-19T02:23:12.615Z,6.40
2023-05-19T02:25:47.109Z,6.60
2023-05-19T02:28:21.148Z,5.00
2023-05-19T02:30:54.878Z,6.90
2023-05-19T02:33:31.566Z,5.30
2023-05-19T02:36:05.281Z,4.10
2023-05-19T02:38:39.049Z,8.40
2023-05-19T02:41:12.870Z,5.20
2023-05-19T02:43:46.741Z,12.80
2023-05-19T02:46:20.402Z,5.60
2023-05-19T02:48:54.944Z,6.50
2023-05-19T02:51:29.415Z,9.80
2023-05-19T02:54:04.196Z,4.70
2023-05-19T02:56:37.897Z,9.10
2023-05-19T02:59:11.603Z,7.60
2023-05-19T03:01:45.292Z,7.30
2023-05-19T03:04:20.520Z,13.30
2023-05-19T03:06:54.643Z,9.50
2023-05-19T03:09:28.473Z,13.20
2023-05-19T03:12:04.711Z,11.50
2023-05-19T03:14:39.504Z,8.50
2023-05-19T03:17:13.766Z,14.00
2023-05-19T03:19:47.376Z,8.00
2023-05-19T03:22:21.509Z,12.90
2023-05-19T03:24:55.005Z,6.10
2023-05-19T03:27:28.899Z,10.10
2023-05-19T03:30:06.257Z,9.40
2023-05-19T03:32:40.632Z,11.70
2023-05-19T03:35:14.241Z,10.20
2023-05-19T03:37:50.626Z,17.60
2023-05-19T03:40:24.443Z,18.40
2023-05-19T03:42:58.615Z,6.80
2023-05-19T03:45:32.358Z,6.40
2023-05-19T03:48:06.506Z,10.70
2023-05-19T03:50:40.206Z,6.80
2023-05-19T03:53:14.476Z,8.40
2023-05-19T03:55:49.200Z,8.10
2023-05-19T03:58:22.877Z,8.10
2023-05-19T04:00:56.734Z,10.50
2023-05-19T04:03:30.444Z,8.50
2023-05-19T04:06:04.394Z,11.50
2023-05-19T04:08:38.269Z,24.20
2023-05-19T04:11:12.186Z,12.00
2023-05-19T04:13:45.987Z,9.90
2023-05-19T04:16:20.183Z,8.20
2023-05-19T04:18:53.837Z,11.20
2023-05-19T04:21:27.900Z,10.70
2023-05-19T04:24:01.666Z,7.70
2023-05-19T04:26:35.308Z,7.40
2023-05-19T04:29:11.129Z,5.00
2023-05-19T04:31:45.543Z,4.00
2023-05-19T04:34:20.438Z,4.60
2023-05-19T04:36:55.916Z,5.20
2023-05-19T04:39:30.201Z,4.50
2023-05-19T04:42:04.476Z,8.60
2023-05-19T04:44:38.419Z,4.30
2023-05-19T04:47:15.471Z,9.60
2023-05-19T04:49:49.221Z,4.50
2023-05-19T04:52:23.381Z,4.80
2023-05-19T04:54:58.991Z,5.90
2023-05-19T04:57:32.800Z,10.60
2023-05-19T05:00:09.421Z,10.20
2023-05-19T05:02:45.776Z,6.00
2023-05-19T05:05:20.060Z,4.70
2023-05-19T05:07:54.449Z,6.50
2023-05-19T05:10:28.556Z,10.00
2023-05-19T05:13:03.250Z,6.80
2023-05-19T05:15:40.051Z,6.10
2023-05-19T05:18:15.483Z,8.20
2023-05-19T05:20:50.915Z,5.00
2023-05-19T05:25:58.134Z,3.70
2023-05-19T05:28:31.823Z,6.10
2023-05-19T05:31:06.192Z,3.60
2023-05-19T05:33:40.679Z,6.50
2023-05-19T05:36:14.600Z,4.60
2023-05-19T05:38:49.047Z,6.90
2023-05-19T05:41:25.258Z,7.60
2023-05-19T05:43:59.302Z,5.00
2023-05-19T05:46:33.761Z,5.20
2023-05-19T05:49:10.498Z,6.50
2023-05-19T05:51:57.940Z,4.30
2023-05-19T05:54:40.146Z,4.40
2023-05-19T05:57:18.117Z,3.80
2023-05-19T05:59:51.771Z,2.10
2023-05-19T06:02:28.565Z,3.80
2023-05-19T06:05:03.022Z,2.70
2023-05-19T06:07:36.618Z,4.20
2023-05-19T06:10:14.331Z,3.50
2023-05-19T06:12:47.955Z,7.30
2023-05-19T06:15:21.577Z,7.50
2023-05-19T06:17:55.317Z,4.20
2023-05-19T06:20:29.123Z,3.40
2023-05-19T06:23:05.108Z,3.30
2023-05-19T06:28:11.803Z,4.00
2023-05-19T06:30:45.529Z,3.00
2023-05-19T06:33:22.367Z,3.90
2023-05-19T06:35:56.204Z,3.50
2023-05-19T06:38:29.824Z,2.10
2023-05-19T06:41:03.536Z,6.30
2023-05-19T06:43:37.854Z,5.50
2023-05-19T06:46:13.449Z,2.40
2023-05-19T06:48:47.404Z,2.20
2023-05-19T06:51:23.953Z,4.20
2023-05-19T06:53:57.822Z,3.50
2023-05-19T06:56:35.254Z,2.60
2023-05-19T06:59:08.876Z,4.30
2023-05-19T07:01:42.427Z,3.00
2023-05-19T07:04:16.840Z,1.90
2023-05-19T07:06:50.746Z,2.40
2023-05-19T07:09:25.850Z,8.10
2023-05-19T07:12:02.006Z,2.70
2023-05-19T07:14:37.110Z,2.30
2023-05-19T07:17:12.194Z,4.00
2023-05-19T07:19:48.168Z,3.10
2023-05-19T07:22:24.727Z,2.90
2023-05-19T07:27:32.697Z,3.30
2023-05-19T07:30:07.006Z,3.80
2023-05-19T07:32:42.266Z,2.10
2023-05-19T07:35:15.922Z,3.70
2023-05-19T07:37:49.685Z,11.20
2023-05-19T07:40:23.263Z,4.00
2023-05-19T07:42:56.986Z,3.20
2023-05-19T07:45:31.046Z,2.80
2023-05-19T07:48:04.874Z,7.60
2023-05-19T07:50:41.131Z,7.80
2023-05-19T07:53:14.876Z,3.10
2023-05-19T07:55:48.689Z,4.50
2023-05-19T07:58:22.882Z,2.30
2023-05-19T08:00:59.009Z,2.30
2023-05-19T08:03:33.312Z,5.10
2023-05-19T08:06:08.163Z,4.10
2023-05-19T08:08:43.105Z,3.50
2023-05-19T08:11:17.656Z,4.10
2023-05-19T08:13:51.415Z,5.00
2023-05-19T08:16:25.725Z,4.20
2023-05-19T08:19:03.334Z,3.50
2023-05-19T08:21:39.018Z,2.60
2023-05-19T08:24:13.526Z,4.20
2023-05-19T08:26:48.009Z,4.70
2023-05-19T08:29:21.583Z,4.90
2023-05-19T08:31:55.862Z,3.10
2023-05-19T08:34:29.409Z,2.60
2023-05-19T08:37:03.625Z,3.40
2023-05-19T08:39:37.380Z,4.00
2023-05-19T08:42:14.641Z,2.00
2023-05-19T08:44:48.550Z,4.10
2023-05-19T08:47:23.275Z,3.60
2023-05-19T08:50:04.410Z,4.80
2023-05-19T08:52:49.536Z,3.90
2023-05-19T08:55:31.723Z,5.60
2023-05-19T08:58:06.634Z,3.30
2023-05-19T09:00:42.133Z,4.80
2023-05-19T09:03:22.876Z,8.10
2023-05-19T09:05:57.292Z,3.90
2023-05-19T09:08:31.108Z,3.10
2023-05-19T09:11:04.773Z,3.10
2023-05-19T09:13:38.762Z,11.90
2023-05-19T09:16:13.262Z,4.80
2023-05-19T09:18:58.309Z,3.00
2023-05-19T09:21:35.591Z,4.40
2023-05-19T09:24:11.594Z,2.30
2023-05-19T09:26:47.192Z,3.90
2023-05-19T09:29:21.533Z,4.70
2023-05-19T09:31:56.444Z,3.70
2023-05-19T09:34:30.179Z,4.90
2023-05-19T09:37:04.496Z,5.10
2023-05-19T09:39:38.626Z,13.90
2023-05-19T09:42:12.272Z,5.50
2023-05-19T09:44:46.203Z,5.10
2023-05-19T09:47:19.900Z,5.90
2023-05-19T09:49:53.361Z,5.80
2023-05-19T09:52:45.033Z,9.40
2023-05-19T09:55:23.613Z,7.70
2023-05-19T09:58:00.288Z,5.80
2023-05-19T10:00:35.580Z,4.50
2023-05-19T10:03:10.011Z,3.90
2023-05-19T10:05:43.827Z,7.00
2023-05-19T10:08:18.357Z,10.40
2023-05-19T10:10:52.295Z,5.30
2023-05-19T10:13:26.660Z,9.90
2023-05-19T10:16:01.668Z,7.40
2023-05-19T10:18:39.614Z,3.30
2023-05-19T10:21:14.871Z,4.70
2023-05-19T10:23:49.052Z,7.10
2023-05-19T10:26:23.619Z,5.00
2023-05-19T10:28:58.185Z,6.20
2023-05-19T10:31:36.642Z,3.50
2023-05-19T10:34:30.227Z,8.30
2023-05-19T10:37:13.607Z,9.20
2023-05-19T10:39:47.877Z,3.40
2023-05-19T10:42:31.404Z,3.60
2023-05-19T10:45:11.590Z,4.00
2023-05-19T10:47:46.253Z,8.40
2023-05-19T10:50:23.713Z,7.40
2023-05-19T10:53:00.630Z,3.60
2023-05-19T10:55:53.147Z,4.50
2023-05-19T10:58:52.493Z,6.50
2023-05-19T11:01:26.888Z,4.70
2023-05-19T11:04:06.099Z,6.60
2023-05-19T11:06:41.681Z,4.70
2023-05-19T11:09:22.469Z,19.70
2023-05-19T11:12:08.185Z,7.90
2023-05-19T11:14:42.049Z,7.90
2023-05-19T11:17:18.331Z,4.90
2023-05-19T11:19:59.976Z,7.50
2023-05-19T11:22:36.706Z,6.30
2023-05-19T11:25:11.176Z,4.20
2023-05-19T11:27:45.690Z,3.70
2023-05-19T11:30:21.717Z,5.20
2023-05-19T11:35:28.254Z,4.60
2023-05-19T11:38:04.921Z,7.40
2023-05-19T11:40:38.816Z,3.90
2023-05-19T11:43:12.796Z,4.10
2023-05-19T11:45:47.507Z,8.20
2023-05-19T11:48:24.684Z,4.90
2023-05-19T11:50:58.517Z,5.80
2023-05-19T11:53:34.037Z,4.90
2023-05-19T11:56:09.682Z,8.80
2023-05-19T11:58:43.273Z,8.00
2023-05-19T12:01:17.049Z,4.10
2023-05-19T12:03:50.951Z,5.00
2023-05-19T12:06:24.805Z,4.70
2023-05-19T12:09:00.225Z,3.60
2023-05-19T12:11:35.631Z,4.40
2023-05-19T12:14:10.047Z,4.50
2023-05-19T12:16:45.424Z,6.30
2023-05-19T12:19:20.754Z,8.20
2023-05-19T12:21:54.608Z,8.80
2023-05-19T12:24:28.738Z,3.70
2023-05-19T12:27:11.855Z,4.70
2023-05-19T12:29:50.906Z,6.80
2023-05-19T12:32:27.206Z,5.90
2023-05-19T12:37:33.896Z,8.40
2023-05-19T12:40:09.228Z,4.80
2023-05-19T12:42:49.397Z,12.30
2023-05-19T12:45:26.251Z,4.40
2023-05-19T12:48:00.618Z,8.30
2023-05-19T12:50:36.382Z,10.20
2023-05-19T12:53:12.588Z,6.90
2023-05-19T12:55:47.320Z,5.30
2023-05-19T12:58:24.657Z,7.60
2023-05-19T13:01:02.619Z,3.90
2023-05-19T13:03:49.603Z,5.40
2023-05-19T13:06:23.788Z,8.20
2023-05-19T13:08:57.642Z,9.00
2023-05-19T13:11:31.463Z,5.80
2023-05-19T13:14:05.554Z,12.80
2023-05-19T13:16:43.240Z,5.50
2023-05-19T13:19:24.933Z,4.60
2023-05-19T13:21:59.162Z,8.80
2023-05-19T13:24:34.772Z,8.40
2023-05-19T13:27:11.809Z,5.70
2023-05-19T13:29:45.794Z,10.30
2023-05-19T13:32:20.708Z,5.60
2023-05-19T13:34:54.607Z,4.70
2023-05-19T13:37:28.942Z,9.60
2023-05-19T13:40:02.684Z,6.90
2023-05-19T13:42:37.293Z,10.30
2023-05-19T13:45:13.301Z,12.60
2023-05-19T13:47:46.815Z,14.70
2023-05-19T13:50:20.483Z,10.60
2023-05-19T13:52:54.322Z,15.90
2023-05-19T13:55:28.206Z,9.90
2023-05-19T13:58:01.827Z,7.90
2023-05-19T14:00:36.565Z,8.40
2023-05-19T14:03:10.652Z,6.10
2023-05-19T14:05:44.607Z,10.10
2023-05-19T14:08:18.207Z,9.20
2023-05-19T14:10:52.988Z,7.70
2023-05-19T14:13:34.714Z,8.90
2023-05-19T14:16:13.764Z,14.90
2023-05-19T14:18:48.905Z,7.10
2023-05-19T14:21:22.463Z,10.20
2023-05-19T14:23:55.996Z,12.40
2023-05-19T14:26:29.692Z,6.10
2023-05-19T14:29:04.861Z,6.50
2023-05-19T14:31:38.768Z,5.90
2023-05-19T14:34:18.182Z,5.90
2023-05-19T14:36:52.194Z,9.20
2023-05-19T14:39:25.686Z,4.40
2023-05-19T14:41:59.998Z,7.00
2023-05-19T14:44:35.888Z,6.10
2023-05-19T14:47:11.788Z,6.50
2023-05-19T14:49:46.075Z,7.30
2023-05-19T14:52:21.874Z,6.80
2023-05-19T14:54:56.489Z,7.90
2023-05-19T14:57:30.348Z,9.50
2023-05-19T15:00:04.124Z,5.50
2023-05-19T15:02:37.878Z,10.90
2023-05-19T15:05:13.421Z,11.40
2023-05-19T15:07:47.457Z,11.90
2023-05-19T15:10:21.450Z,5.60
2023-05-19T15:12:55.086Z,11.00
2023-05-19T15:15:28.513Z,5.90
2023-05-19T15:18:02.100Z,9.30
2023-05-19T15:20:36.478Z,13.30
2023-05-19T15:23:10.440Z,12.40
2023-05-19T15:25:45.830Z,11.30
2023-05-19T15:28:19.391Z,13.20
2023-05-19T15:30:57.376Z,11.40
2023-05-19T15:33:31.441Z,14.20
2023-05-19T15:36:07.876Z,21.60
2023-05-19T15:38:42.916Z,11.40
2023-05-19T15:41:16.572Z,10.50
2023-05-19T15:43:50.130Z,15.30
2023-05-19T15:46:23.762Z,12.40
2023-05-19T15:48:57.499Z,11.30
2023-05-19T15:51:31.967Z,12.80
2023-05-19T15:54:07.866Z,15.40
2023-05-19T15:56:41.472Z,12.10
2023-05-19T15:59:15.036Z,15.20
2023-05-19T16:01:52.083Z,16.60
2023-05-19T16:04:26.779Z,16.50
2023-05-19T16:07:00.453Z,18.00
2023-05-19T16:09:34.508Z,18.90
2023-05-19T16:12:09.144Z,19.10
2023-05-19T16:14:42.828Z,20.70
2023-05-19T16:17:19.612Z,21.90
2023-05-19T16:19:53.525Z,19.10
2023-05-19T16:22:27.593Z,30.80
2023-05-19T16:25:01.130Z,36.20
2023-05-19T16:27:34.816Z,31.10
2023-05-19T16:30:09.999Z,21.60
2023-05-19T16:32:43.923Z,17.80
2023-05-19T16:35:17.525Z,17.60
2023-05-19T16:37:52.098Z,16.50
2023-05-19T16:40:25.732Z,20.10
2023-05-19T16:43:00.275Z,14.60
2023-05-19T16:45:34.009Z,19.60
2023-05-19T16:48:08.423Z,19.60
2023-05-19T16:50:42.141Z,15.70
2023-05-19T16:53:16.169Z,14.00
2023-05-19T16:55:49.988Z,23.20
2023-05-19T16:58:23.786Z,13.60
2023-05-19T17:00:59.256Z,17.30
2023-05-19T17:03:33.777Z,15.60
2023-05-19T17:06:08.969Z,17.10
2023-05-19T17:08:42.939Z,11.50
2023-05-19T17:11:19.753Z,12.10
2023-05-19T17:13:53.389Z,16.40
2023-05-19T17:16:27.400Z,18.30
2023-05-19T17:19:01.303Z,13.50
2023-05-19T17:21:34.909Z,19.90
2023-05-19T17:24:09.314Z,18.50
2023-05-19T17:26:43.017Z,21.00
2023-05-19T17:29:16.570Z,18.40
2023-05-19T17:31:50.370Z,20.40
2023-05-19T17:34:24.042Z,15.00
2023-05-19T17:36:57.865Z,13.60
2023-05-19T17:39:31.433Z,18.80
2023-05-19T17:42:08.017Z,18.70
2023-05-19T17:44:43.818Z,16.80
2023-05-19T17:47:17.497Z,24.10
2023-05-19T17:49:53.293Z,21.20
2023-05-19T17:52:28.191Z,14.70
2023-05-19T17:55:03.016Z,18.80
2023-05-19T17:57:42.883Z,16.80
2023-05-19T18:00:18.072Z,14.30
2023-05-19T18:02:53.575Z,13.60
2023-05-19T18:05:28.568Z,16.30
2023-05-19T18:08:05.530Z,15.20
2023-05-19T18:10:41.156Z,15.00
2023-05-19T18:13:16.158Z,22.40
2023-05-19T18:15:49.910Z,21.90
2023-05-19T18:18:23.687Z,23.30
2023-05-19T18:20:57.608Z,17.50
2023-05-19T18:23:31.781Z,15.00
2023-05-19T18:26:05.295Z,14.70
2023-05-19T18:28:39.199Z,16.20
2023-05-19T18:31:19.890Z,14.90
2023-05-19T18:33:54.037Z,13.40
2023-05-19T18:36:28.211Z,17.80
2023-05-19T18:39:04.994Z,16.80
2023-05-19T18:41:41.786Z,17.00
2023-05-19T18:44:15.911Z,18.80
2023-05-19T18:46:50.025Z,18.40
2023-05-19T18:49:25.310Z,15.90
2023-05-19T18:51:58.973Z,20.30
2023-05-19T18:54:32.992Z,24.20
2023-05-19T18:57:07.090Z,19.90
2023-05-19T18:59:41.266Z,17.00
2023-05-19T19:02:16.846Z,18.10
2023-05-19T19:04:51.688Z,16.10
2023-05-19T19:07:25.824Z,18.60
2023-05-19T19:10:01.777Z,24.60
2023-05-19T19:12:36.489Z,16.20
2023-05-19T19:15:15.629Z,15.40
2023-05-19T19:17:50.671Z,13.90
2023-05-19T19:20:24.526Z,14.20
2023-05-19T19:23:02.268Z,15.00
2023-05-19T19:25:38.087Z,16.00
2023-05-19T19:28:12.183Z,14.70
2023-05-19T19:30:45.883Z,16.80
2023-05-19T19:33:20.916Z,15.20
2023-05-19T19:35:54.854Z,13.70
2023-05-19T19:38:30.748Z,13.10
2023-05-19T19:41:04.707Z,14.40
2023-05-19T19:43:38.487Z,20.40
2023-05-19T19:46:20.111Z,15.10
2023-05-19T19:48:53.788Z,19.40
2023-05-19T19:51:28.723Z,14.40
2023-05-19T19:54:02.877Z,16.80
2023-05-19T19:56:36.639Z,15.10
2023-05-19T19:59:11.700Z,15.50
2023-05-19T20:01:45.630Z,15.00
2023-05-19T20:04:19.504Z,18.20
2023-05-19T20:06:53.327Z,14.40
2023-05-19T20:09:30.174Z,17.40
2023-05-19T20:12:04.354Z,20.50
2023-05-19T20:14:40.452Z,16.00
2023-05-19T20:17:14.131Z,14.20
2023-05-19T20:19:50.052Z,15.80
2023-05-19T20:22:23.662Z,18.90
2023-05-19T20:24:58.113Z,15.70
2023-05-19T20:27:31.833Z,21.50
2023-05-19T20:30:05.607Z,19.10
2023-05-19T20:32:40.233Z,15.60
2023-05-19T20:35:15.485Z,19.20
2023-05-19T20:37:49.872Z,21.50
2023-05-19T20:40:23.981Z,15.90
2023-05-19T20:42:57.823Z,18.00
2023-05-19T20:45:33.988Z,16.70
2023-05-19T20:48:08.381Z,17.10
2023-05-19T20:50:43.236Z,20.20
2023-05-19T20:53:20.864Z,27.30
2023-05-19T20:55:56.629Z,20.20
2023-05-19T20:58:32.874Z,18.40
2023-05-19T21:01:06.778Z,16.70
2023-05-19T21:03:40.811Z,13.70
2023-05-19T21:06:14.853Z,16.90
2023-05-19T21:08:49.051Z,16.80
2023-05-19T21:11:24.799Z,19.60
2023-05-19T21:13:58.469Z,21.00
2023-05-19T21:16:32.539Z,27.60
2023-05-19T21:19:06.976Z,21.60
2023-05-19T21:21:43.388Z,17.60
2023-05-19T21:24:17.426Z,17.30
2023-05-19T21:26:51.952Z,19.80
2023-05-19T21:29:26.357Z,17.60
2023-05-19T21:32:00.228Z,18.00
2023-05-19T21:34:33.818Z,18.70
2023-05-19T21:37:07.853Z,16.90
2023-05-19T21:39:41.548Z,21.40
2023-05-19T21:42:15.497Z,17.50
2023-05-19T21:44:49.022Z,13.00
2023-05-19T21:47:22.512Z,16.10
2023-05-19T21:49:56.141Z,19.50
2023-05-19T21:52:29.976Z,18.00
2023-05-19T21:55:03.561Z,19.10
2023-05-19T21:57:38.657Z,16.20
2023-05-19T22:00:14.285Z,15.50
2023-05-19T22:02:47.895Z,22.00
2023-05-19T22:05:21.828Z,15.90
2023-05-19T22:07:55.599Z,20.70
2023-05-19T22:10:29.632Z,21.40
2023-05-19T22:13:03.477Z,17.80
2023-05-19T22:15:37.088Z,23.50
2023-05-19T22:18:10.593Z,23.40
2023-05-19T22:20:44.296Z,17.40
2023-05-19T22:23:17.818Z,15.40
2023-05-19T22:25:51.859Z,19.30
2023-05-19T22:28:25.494Z,21.40
2023-05-19T22:30:58.902Z,25.80
2023-05-19T22:33:32.820Z,18.10
2023-05-19T22:36:08.909Z,20.10
2023-05-19T22:38:42.939Z,18.80
2023-05-19T22:41:16.489Z,18.80
2023-05-19T22:43:50.017Z,24.20
2023-05-19T22:46:23.688Z,27.10
2023-05-19T22:48:57.211Z,17.80
2023-05-19T22:51:31.921Z,31.10
2023-05-19T22:54:05.916Z,27.30
2023-05-19T22:56:39.513Z,30.40
2023-05-19T22:59:14.676Z,20.60
2023-05-19T23:01:48.283Z,25.30
2023-05-19T23:04:22.248Z,22.10
2023-05-19T23:06:57.931Z,21.10
2023-05-19T23:09:31.548Z,24.70
2023-05-19T23:12:05.497Z,27.20
2023-05-19T23:14:40.656Z,20.60
2023-05-19T23:17:14.411Z,25.30
2023-05-19T23:19:48.716Z,18.00
2023-05-19T23:22:22.445Z,19.10
2023-05-19T23:24:56.345Z,24.80
2023-05-19T23:27:29.954Z,20.80
2023-05-19T23:30:03.733Z,21.30
2023-05-19T23:32:37.790Z,19.10
2023-05-19T23:35:16.130Z,17.50
2023-05-19T23:37:50.267Z,20.90
2023-05-19T23:40:24.300Z,16.20
2023-05-19T23:42:58.337Z,17.40
2023-05-19T23:45:32.097Z,17.00
2023-05-19T23:48:06.091Z,19.70
2023-05-19T23:50:39.997Z,30.80
2023-05-19T23:53:13.892Z,20.60
2023-05-19T23:55:48.652Z,17.30
2023-05-19T23:58:23.812Z,23.10
